Time;durP1;ratioP1;P1;durP2;ratioP2;P2;SDS_P1;SDS_P2;PMS_P1;PMS_P2;Temp;Humidity;BMP_temperature;BMP_pressure;BME280_temperature;BME280_humidity;BME280_pressure;Samples;Min_cycle;Max_cycle;Signal;HPM_P1;HPM_P2
2022/09/22 00:00:58;;;;;;;15.05;13.95;;;4.20;99.90;;;;;;5023712;28;20041;-81
2022/09/22 00:03:30;;;;;;;16.00;14.65;;;4.20;99.90;;;;;;5023207;28;20056;-81
2022/09/22 00:06:02;;;;;;;15.88;14.73;;;4.20;99.90;;;;;;5033272;28;20115;-81
2022/09/22 00:08:31;;;;;;;16.60;14.90;;;4.10;99.90;;;;;;5006954;28;20532;-81
2022/09/22 00:11:15;;;;;;;16.75;15.32;;;4.00;99.90;;;;;;5040137;28;20033;-81
2022/09/22 00:13:59;;;;;;;18.27;15.23;;;4.00;99.90;;;;;;5020998;28;20080;-82
2022/09/22 00:16:29;;;;;;;16.38;15.05;;;4.00;99.90;;;;;;5045581;28;20056;-81
2022/09/22 00:18:56;;;;;;;15.88;14.57;;;4.00;99.90;;;;;;5033575;28;20131;-80
2022/09/22 00:21:26;;;;;;;17.13;15.60;;;3.90;99.90;;;;;;5044725;28;20053;-82
2022/09/22 00:23:53;;;;;;;16.70;15.32;;;3.90;99.90;;;;;;5045842;28;20076;-80
2022/09/22 00:26:22;;;;;;;15.75;14.73;;;3.90;99.90;;;;;;5033070;28;20410;-81
2022/09/22 00:28:50;;;;;;;16.70;15.50;;;3.90;99.90;;;;;;5025578;28;20053;-81
2022/09/22 00:31:22;;;;;;;18.35;16.25;;;3.90;99.90;;;;;;5038245;28;20048;-81
2022/09/22 00:33:51;;;;;;;17.73;15.68;;;3.90;99.90;;;;;;5040848;28;20053;-82
2022/09/22 00:36:24;;;;;;;17.15;15.88;;;3.90;99.90;;;;;;5042982;28;20529;-82
2022/09/22 00:38:52;;;;;;;17.45;15.77;;;4.00;99.90;;;;;;5035443;28;20053;-81
2022/09/22 00:41:35;;;;;;;17.98;16.27;;;4.10;99.90;;;;;;5032231;28;20694;-81
2022/09/22 00:44:30;;;;;;;16.42;15.27;;;4.00;99.90;;;;;;5025230;28;20049;-80
2022/09/22 00:47:12;;;;;;;16.50;15.23;;;3.90;99.90;;;;;;5036404;28;20037;-81
2022/09/22 00:50:04;;;;;;;16.27;14.90;;;3.80;99.90;;;;;;5022506;28;20063;-81
2022/09/22 00:52:39;;;;;;;16.30;15.00;;;3.80;99.90;;;;;;5044500;28;20095;-80
2022/09/22 00:55:13;;;;;;;16.60;15.38;;;3.80;99.90;;;;;;5043563;28;20037;-81
2022/09/22 00:57:43;;;;;;;15.88;14.85;;;3.80;99.90;;;;;;5043851;28;20036;-81
2022/09/22 01:00:11;;;;;;;17.17;15.73;;;4.00;99.90;;;;;;5041647;28;20041;-81
2022/09/22 01:02:38;;;;;;;16.45;15.18;;;3.90;99.90;;;;;;5035567;28;20858;-81
2022/09/22 01:05:07;;;;;;;17.15;15.15;;;3.80;99.90;;;;;;5055382;28;20037;-80
2022/09/22 01:07:35;;;;;;;16.05;14.95;;;3.80;99.90;;;;;;5018096;28;20048;-81
2022/09/22 01:10:01;;;;;;;16.25;14.77;;;3.90;99.90;;;;;;5018762;28;20041;-79
2022/09/22 01:12:30;;;;;;;16.00;14.65;;;4.10;99.90;;;;;;5039963;28;20043;-79
2022/09/22 01:15:09;;;;;;;16.50;15.10;;;4.00;99.90;;;;;;5051269;28;20135;-79
2022/09/22 01:17:36;;;;;;;16.95;15.52;;;3.90;99.90;;;;;;5011471;28;20059;-79
2022/09/22 01:20:32;;;;;;;16.58;15.00;;;3.80;99.90;;;;;;5051194;28;20582;-79
2022/09/22 01:23:14;;;;;;;16.92;15.30;;;3.80;99.90;;;;;;5043191;28;20049;-79
2022/09/22 01:26:08;;;;;;;16.15;14.73;;;3.80;99.90;;;;;;5030260;28;20044;-81
2022/09/22 01:28:41;;;;;;;16.30;15.05;;;3.80;99.90;;;;;;5040965;28;20570;-81
2022/09/22 01:31:33;;;;;;;16.38;15.10;;;3.70;99.90;;;;;;5040265;28;20041;-81
2022/09/22 01:34:22;;;;;;;17.02;15.32;;;3.70;99.90;;;;;;5035255;28;20125;-81
2022/09/22 01:37:03;;;;;;;16.83;15.23;;;3.70;99.90;;;;;;5034833;28;20082;-80
2022/09/22 01:39:37;;;;;;;16.23;14.85;;;3.60;99.90;;;;;;5056493;28;20072;-81
2022/09/22 01:42:31;;;;;;;16.42;14.95;;;3.60;99.90;;;;;;5044046;28;20043;-83
2022/09/22 01:45:09;;;;;;;17.05;15.35;;;3.60;99.90;;;;;;5033199;28;20049;-83
2022/09/22 01:47:42;;;;;;;19.13;15.60;;;3.60;99.90;;;;;;5043745;28;20071;-84
2022/09/22 01:50:24;;;;;;;16.95;15.52;;;3.60;99.90;;;;;;5026812;28;20041;-83
2022/09/22 01:52:52;;;;;;;17.13;15.45;;;3.60;99.90;;;;;;5046193;28;20167;-83
2022/09/22 01:55:24;;;;;;;17.15;15.50;;;3.60;99.90;;;;;;5036313;28;20041;-83
2022/09/22 01:58:04;;;;;;;16.35;15.13;;;3.70;99.90;;;;;;5036775;28;20053;-82
2022/09/22 02:00:31;;;;;;;16.92;15.48;;;3.70;99.90;;;;;;5035453;28;20120;-84
2022/09/22 02:03:23;;;;;;;16.50;15.20;;;3.60;99.90;;;;;;5045014;28;20472;-83
2022/09/22 02:05:58;;;;;;;17.20;15.25;;;3.70;99.90;;;;;;5049386;28;20046;-82
2022/09/22 02:08:34;;;;;;;;;;;3.90;99.90;;;;;;5043905;28;20486;-82
2022/09/22 02:11:08;;;;;;;14.75;13.25;;;3.80;99.90;;;;;;5029252;28;19921;-82
2022/09/22 02:13:35;;;;;;;16.83;13.73;;;3.90;99.90;;;;;;5012923;28;20048;-83
2022/09/22 02:16:04;;;;;;;14.48;13.18;;;4.10;99.90;;;;;;5030265;28;20609;-82
2022/09/22 02:18:48;;;;;;;13.95;12.60;;;3.90;99.90;;;;;;5031985;28;20079;-84
2022/09/22 02:21:16;;;;;;;14.60;12.98;;;3.90;99.90;;;;;;5042083;28;20055;-82
2022/09/22 02:23:45;;;;;;;15.05;13.25;;;3.70;99.90;;;;;;5039242;28;20055;-84
2022/09/22 02:26:22;;;;;;;14.38;13.13;;;3.70;99.90;;;;;;5017868;28;20426;-82
2022/09/22 02:28:53;;;;;;;13.73;12.75;;;3.70;99.90;;;;;;5028580;28;20555;-82
2022/09/22 02:31:23;;;;;;;15.57;14.20;;;3.60;99.90;;;;;;5030891;28;20490;-82
2022/09/22 02:33:51;;;;;;;15.18;14.18;;;3.60;99.90;;;;;;5052829;28;20140;-82
2022/09/22 02:36:22;;;;;;;16.10;14.88;;;3.50;99.90;;;;;;5052332;28;20580;-82
2022/09/22 02:39:00;;;;;;;15.88;14.88;;;3.40;99.90;;;;;;5047198;28;20101;-83
2022/09/22 02:41:50;;;;;;;16.00;14.80;;;3.30;99.90;;;;;;5019402;28;20131;-83
2022/09/22 02:44:45;;;;;;;15.88;14.93;;;3.30;99.90;;;;;;5026561;28;20045;-82
2022/09/22 02:47:15;;;;;;;;;;;3.30;99.90;;;;;;5051057;28;20506;-82
2022/09/22 02:49:43;;;;;;;17.00;15.68;;;3.30;99.90;;;;;;5012434;28;20309;-82
2022/09/22 02:52:12;;;;;;;16.25;15.13;;;3.20;99.90;;;;;;5023475;28;20108;-83
2022/09/22 02:54:38;;;;;;;15.95;14.85;;;3.20;99.90;;;;;;5042377;28;20053;-82
2022/09/22 02:57:06;;;;;;;16.67;15.30;;;3.20;99.90;;;;;;5047685;28;20052;-83
2022/09/22 02:59:32;;;;;;;17.08;15.55;;;3.20;99.90;;;;;;5039368;28;20045;-82
2022/09/22 03:01:59;;;;;;;16.23;15.23;;;3.20;99.90;;;;;;5045584;28;20044;-82
2022/09/22 03:04:26;;;;;;;16.42;15.25;;;3.20;99.90;;;;;;5035048;28;20055;-82
2022/09/22 03:06:55;;;;;;;18.00;16.35;;;3.20;99.90;;;;;;5031572;28;20032;-82
2022/09/22 03:09:23;;;;;;;16.83;15.45;;;3.30;99.90;;;;;;5047651;28;20055;-81
2022/09/22 03:11:49;;;;;;;16.83;15.25;;;3.50;99.90;;;;;;5034317;28;20055;-83
2022/09/22 03:14:16;;;;;;;16.65;15.27;;;3.50;99.90;;;;;;5054681;28;20052;-82
2022/09/22 03:16:42;;;;;;;17.35;15.95;;;3.30;99.90;;;;;;5041834;28;20045;-83
2022/09/22 03:19:09;;;;;;;16.40;15.20;;;3.30;99.90;;;;;;5022954;28;20049;-82
2022/09/22 03:21:37;;;;;;;16.60;15.05;;;3.20;99.90;;;;;;5047810;28;20045;-82
2022/09/22 03:24:03;;;;;;;16.10;14.57;;;3.20;99.90;;;;;;5030331;28;20676;-82
2022/09/22 03:26:30;;;;;;;16.00;14.70;;;3.20;99.90;;;;;;5040355;28;20383;-82
2022/09/22 03:28:57;;;;;;;15.82;14.52;;;3.40;99.90;;;;;;5051692;28;20044;-84
2022/09/22 03:31:23;;;;;;;16.02;14.63;;;3.40;99.90;;;;;;5040346;28;20064;-83
2022/09/22 03:33:50;;;;;;;19.35;15.10;;;3.30;99.90;;;;;;5044199;28;20037;-84
2022/09/22 03:36:18;;;;;;;15.48;13.85;;;3.30;99.90;;;;;;5030437;28;20537;-84
2022/09/22 03:38:45;;;;;;;15.65;14.15;;;3.30;99.90;;;;;;5047627;28;20044;-84
2022/09/22 03:41:12;;;;;;;15.48;14.10;;;3.20;99.90;;;;;;5042938;28;20072;-82
2022/09/22 03:43:38;;;;;;;15.27;14.02;;;3.20;99.90;;;;;;5007829;28;20242;-81
2022/09/22 03:46:05;;;;;;;15.38;14.02;;;3.10;99.90;;;;;;5046299;28;20379;-81
2022/09/22 03:48:32;;;;;;;15.73;14.63;;;3.10;99.90;;;;;;5023085;28;20101;-83
2022/09/22 03:50:59;;;;;;;15.93;14.75;;;3.10;99.90;;;;;;5031610;28;20037;-81
2022/09/22 03:53:26;;;;;;;17.30;15.15;;;3.00;99.90;;;;;;5035034;28;20051;-82
2022/09/22 03:56:06;;;;;;;16.08;14.98;;;3.10;99.90;;;;;;5021390;28;20037;-81
2022/09/22 03:58:34;;;;;;;16.40;15.02;;;3.00;99.90;;;;;;5038892;28;20045;-82
2022/09/22 04:01:00;;;;;;;17.52;15.93;;;3.00;99.90;;;;;;5036246;28;20037;-81
2022/09/22 04:03:27;;;;;;;17.70;15.95;;;3.00;99.90;;;;;;5029263;28;20052;-81
2022/09/22 04:05:55;;;;;;;18.10;16.38;;;2.90;99.90;;;;;;5054070;28;20455;-81
2022/09/22 04:08:22;;;;;;;17.23;15.82;;;3.00;99.90;;;;;;5033500;28;20490;-82
2022/09/22 04:10:49;;;;;;;18.60;16.80;;;3.20;99.90;;;;;;5025218;28;20063;-81
2022/09/22 04:13:16;;;;;;;17.95;16.15;;;3.30;99.90;;;;;;5033944;28;20144;-82
2022/09/22 04:15:45;;;;;;;18.58;16.85;;;3.50;99.90;;;;;;5034919;28;20033;-82
2022/09/22 04:18:13;;;;;;;17.83;16.17;;;3.60;99.90;;;;;;5056517;28;20548;-82
2022/09/22 04:20:42;;;;;;;17.27;15.80;;;3.60;99.90;;;;;;5037320;28;20040;-82
2022/09/22 04:23:10;;;;;;;17.33;15.43;;;3.60;99.90;;;;;;5024539;28;20037;-82
2022/09/22 04:25:37;;;;;;;17.60;15.85;;;3.60;99.90;;;;;;5031115;28;20039;-82
2022/09/22 04:28:05;;;;;;;16.90;15.55;;;3.60;99.90;;;;;;5051709;28;20128;-81
2022/09/22 04:30:33;;;;;;;16.73;15.25;;;3.50;99.90;;;;;;5044805;28;20053;-83
2022/09/22 04:33:00;;;;;;;21.35;16.17;;;3.30;99.90;;;;;;5033979;28;20052;-83
2022/09/22 04:35:27;;;;;;;17.17;15.65;;;3.20;99.90;;;;;;5033882;28;20044;-82
2022/09/22 04:37:54;;;;;;;17.55;15.82;;;3.20;99.90;;;;;;5047212;28;20059;-83
2022/09/22 04:40:22;;;;;;;17.50;15.80;;;3.10;99.90;;;;;;5054333;28;20490;-84
2022/09/22 04:42:50;;;;;;;17.20;16.02;;;3.10;99.90;;;;;;5053183;28;20060;-83
2022/09/22 04:45:17;;;;;;;18.10;16.27;;;3.00;99.90;;;;;;5037204;28;20051;-81
2022/09/22 04:47:48;;;;;;;16.88;15.27;;;3.10;99.90;;;;;;5039927;28;20167;-83
2022/09/22 04:50:16;;;;;;;17.70;16.17;;;3.00;99.90;;;;;;5035864;28;20052;-82
2022/09/22 04:52:49;;;;;;;39.40;16.70;;;3.10;99.90;;;;;;5043966;28;20812;-83
2022/09/22 04:55:16;;;;;;;16.90;15.48;;;3.00;99.90;;;;;;5039900;28;20044;-83
2022/09/22 04:57:51;;;;;;;17.00;15.73;;;3.00;99.90;;;;;;5040209;28;20048;-82
2022/09/22 05:00:18;;;;;;;18.10;16.55;;;3.00;99.90;;;;;;5049461;28;20107;-83
2022/09/22 05:02:45;;;;;;;20.27;18.15;;;3.00;99.90;;;;;;5039893;28;20063;-82
2022/09/22 05:05:12;;;;;;;21.13;19.02;;;2.90;99.90;;;;;;5049270;28;20102;-82
2022/09/22 05:07:46;;;;;;;17.88;16.58;;;2.90;99.90;;;;;;5020828;28;20041;-83
2022/09/22 05:10:15;;;;;;;19.30;17.60;;;3.20;99.90;;;;;;5023463;28;20140;-83
2022/09/22 05:12:42;;;;;;;19.15;17.05;;;3.10;99.90;;;;;;5041172;28;20047;-83
2022/09/22 05:15:11;;;;;;;18.55;16.70;;;3.30;99.90;;;;;;5029443;28;20040;-82
2022/09/22 05:17:45;;;;;;;19.30;17.38;;;3.30;99.90;;;;;;5048512;28;20643;-83
2022/09/22 05:20:11;;;;;;;22.17;16.60;;;3.50;99.90;;;;;;5038955;28;20040;-83
2022/09/22 05:22:39;;;;;;;19.67;17.27;;;3.70;99.90;;;;;;5038483;28;20049;-82
2022/09/22 05:25:08;;;;;;;20.25;17.25;;;3.80;99.90;;;;;;5023608;28;20033;-83
2022/09/22 05:27:34;;;;;;;19.98;17.83;;;3.80;99.90;;;;;;5043128;28;20052;-82
2022/09/22 05:30:01;;;;;;;20.65;17.45;;;3.90;99.90;;;;;;5044523;28;20039;-83
2022/09/22 05:32:28;;;;;;;29.92;17.40;;;3.90;99.90;;;;;;5031966;28;20033;-82
2022/09/22 05:34:56;;;;;;;24.13;15.77;;;4.00;99.90;;;;;;5028752;28;20559;-81
2022/09/22 05:37:22;;;;;;;22.35;17.33;;;3.90;99.90;;;;;;5047649;28;20745;-83
2022/09/22 05:39:49;;;;;;;19.02;16.35;;;3.80;99.90;;;;;;5047703;28;20131;-83
2022/09/22 05:42:16;;;;;;;19.67;15.52;;;3.80;99.90;;;;;;5031101;28;20084;-82
2022/09/22 05:44:42;;;;;;;28.55;17.83;;;3.90;99.90;;;;;;5047333;28;20041;-83
2022/09/22 05:47:09;;;;;;;21.02;16.77;;;3.80;99.90;;;;;;5045203;28;20029;-83
2022/09/22 05:49:36;;;;;;;21.30;16.63;;;3.80;99.90;;;;;;5057955;28;20076;-82
2022/09/22 05:52:02;;;;;;;18.58;16.70;;;3.90;99.90;;;;;;5042260;28;20032;-83
2022/09/22 05:54:29;;;;;;;24.42;17.40;;;4.10;99.90;;;;;;5045679;28;20131;-83
2022/09/22 05:56:55;;;;;;;20.42;18.17;;;4.00;99.90;;;;;;5048822;28;20041;-81
2022/09/22 05:59:22;;;;;;;22.45;17.50;;;3.90;99.90;;;;;;5041316;28;20045;-83
2022/09/22 06:01:49;;;;;;;22.90;18.65;;;3.90;99.90;;;;;;5022191;28;20134;-82
2022/09/22 06:04:16;;;;;;;29.42;20.35;;;4.10;99.90;;;;;;5036685;28;20048;-82
2022/09/22 06:06:42;;;;;;;23.58;20.98;;;4.30;99.90;;;;;;5044414;28;20131;-83
2022/09/22 06:09:09;;;;;;;31.33;23.73;;;4.40;99.90;;;;;;5036599;28;20040;-82
2022/09/22 06:11:36;;;;;;;35.83;24.33;;;4.30;99.90;;;;;;5041202;28;20047;-83
2022/09/22 06:14:02;;;;;;;39.30;26.50;;;4.30;99.90;;;;;;5038732;28;20124;-83
2022/09/22 06:16:30;;;;;;;32.67;24.48;;;4.40;99.90;;;;;;5048396;28;20041;-82
2022/09/22 06:18:57;;;;;;;37.60;25.73;;;4.40;99.90;;;;;;5038203;28;20612;-83
2022/09/22 06:21:24;;;;;;;32.63;25.25;;;4.60;99.90;;;;;;5035567;28;20131;-82
2022/09/22 06:23:51;;;;;;;40.58;27.60;;;4.70;99.90;;;;;;5039193;28;20037;-83
2022/09/22 06:26:18;;;;;;;39.85;26.70;;;4.90;99.90;;;;;;5032260;28;20644;-84
2022/09/22 06:28:45;;;;;;;34.75;26.38;;;5.00;99.90;;;;;;5037296;28;20036;-83
2022/09/22 06:31:13;;;;;;;40.92;27.90;;;5.10;99.90;;;;;;5019429;28;20033;-83
2022/09/22 06:33:47;;;;;;;38.50;25.38;;;5.20;99.90;;;;;;5017360;28;20227;-83
2022/09/22 06:36:22;;;;;;;32.80;25.60;;;5.40;99.90;;;;;;5040158;28;20437;-83
2022/09/22 06:38:49;;;;;;;32.88;23.60;;;5.60;99.90;;;;;;5011455;28;20041;-83
2022/09/22 06:41:16;;;;;;;36.65;24.77;;;5.60;99.90;;;;;;5043377;28;20730;-81
2022/09/22 06:43:47;;;;;;;32.00;24.35;;;5.80;99.90;;;;;;5040634;28;20666;-82
2022/09/22 06:46:17;;;;;;;35.80;23.88;;;5.90;99.90;;;;;;5040882;28;20136;-81
2022/09/22 06:48:44;;;;;;;38.13;23.92;;;6.00;99.90;;;;;;5046557;28;20163;-82
2022/09/22 06:51:10;;;;;;;32.03;22.48;;;5.90;99.90;;;;;;5017393;28;20040;-81
2022/09/22 06:53:39;;;;;;;28.30;19.42;;;6.10;99.90;;;;;;5036655;28;20119;-82
2022/09/22 06:56:07;;;;;;;29.73;20.40;;;6.20;99.90;;;;;;5037148;28;20041;-82
2022/09/22 06:58:34;;;;;;;44.03;23.85;;;6.40;99.90;;;;;;5033096;28;20052;-81
2022/09/22 07:01:23;;;;;;;39.00;23.23;;;6.60;99.90;;;;;;5038621;28;20056;-80
2022/09/22 07:03:51;;;;;;;32.97;21.42;;;6.80;99.90;;;;;;5024304;28;20045;-83
2022/09/22 07:06:18;;;;;;;27.40;19.83;;;6.90;99.90;;;;;;5047333;28;20117;-82
2022/09/22 07:08:47;;;;;;;24.88;17.05;;;7.10;99.90;;;;;;5039143;28;20117;-80
2022/09/22 07:11:16;;;;;;;25.27;17.83;;;7.10;99.90;;;;;;5032207;28;20072;-80
2022/09/22 07:13:45;;;;;;;22.70;14.68;;;7.30;99.90;;;;;;5046692;28;20102;-80
2022/09/22 07:16:16;;;;;;;25.35;15.27;;;7.40;99.90;;;;;;5047659;28;20413;-80
2022/09/22 07:18:50;;;;;;;19.17;14.30;;;7.60;99.90;;;;;;5035441;28;20073;-80
2022/09/22 07:21:21;;;;;;;19.65;13.60;;;7.90;99.90;;;;;;5042798;28;20545;-80
2022/09/22 07:23:50;;;;;;;20.15;15.65;;;8.00;99.90;;;;;;5034584;28;20049;-80
2022/09/22 07:26:25;;;;;;;18.77;15.38;;;8.20;99.90;;;;;;5038991;28;20404;-80
2022/09/22 07:28:52;;;;;;;17.25;13.63;;;8.30;99.90;;;;;;5045322;28;20569;-80
2022/09/22 07:31:21;;;;;;;12.82;11.00;;;8.70;99.90;;;;;;5023268;28;20037;-80
2022/09/22 07:33:55;;;;;;;14.68;10.75;;;9.20;99.90;;;;;;5031109;28;20050;-80
2022/09/22 07:36:24;;;;;;;12.48;11.38;;;9.60;99.90;;;;;;5026146;28;20144;-81
2022/09/22 07:38:53;;;;;;;14.75;13.15;;;10.00;99.90;;;;;;5048560;28;20661;-79
2022/09/22 07:41:26;;;;;;;15.88;14.50;;;10.30;99.90;;;;;;5048182;28;20037;-79
2022/09/22 07:43:56;;;;;;;21.48;19.73;;;10.70;99.90;;;;;;5023787;28;20051;-78
2022/09/22 07:46:23;;;;;;;20.75;19.17;;;10.80;99.90;;;;;;5030073;28;20044;-80
2022/09/22 07:48:50;;;;;;;21.60;20.08;;;11.20;99.90;;;;;;5029152;28;20045;-78
2022/09/22 07:51:22;;;;;;;22.95;21.23;;;11.50;99.90;;;;;;5018167;28;20406;-79
2022/09/22 07:54:08;;;;;;;22.88;21.10;;;11.90;99.90;;;;;;5026209;28;20397;-79
2022/09/22 07:56:40;;;;;;;23.05;21.20;;;12.30;99.90;;;;;;5024226;28;20493;-79
2022/09/22 07:59:11;;;;;;;23.50;21.95;;;12.50;99.90;;;;;;5037011;28;20044;-78
2022/09/22 08:01:46;;;;;;;23.60;21.92;;;12.70;99.90;;;;;;5031187;28;20052;-79
2022/09/22 08:04:15;;;;;;;23.63;22.23;;;13.00;99.90;;;;;;5034197;28;20206;-78
2022/09/22 08:06:44;;;;;;;25.98;24.17;;;13.30;99.90;;;;;;5041648;28;20140;-78
2022/09/22 08:09:12;;;;;;;27.48;25.58;;;13.70;99.90;;;;;;5050126;28;20132;-78
2022/09/22 08:11:39;;;;;;;27.00;25.17;;;13.90;99.90;;;;;;5029918;28;20056;-78
2022/09/22 08:14:10;;;;;;;25.45;23.92;;;14.10;99.90;;;;;;5044257;28;20048;-77
2022/09/22 08:16:38;;;;;;;26.30;24.40;;;14.10;99.90;;;;;;5034412;28;20052;-78
2022/09/22 08:19:13;;;;;;;26.15;24.58;;;14.30;99.90;;;;;;5044191;28;20139;-77
2022/09/22 08:21:44;;;;;;;;;;;14.40;99.90;;;;;;5036691;28;20037;-77
2022/09/22 08:24:20;;;;;;;27.15;25.42;;;14.20;99.90;;;;;;5047695;28;19982;-77
2022/09/22 08:26:49;;;;;;;26.27;24.45;;;14.10;99.90;;;;;;5050675;28;20049;-77
2022/09/22 08:29:16;;;;;;;27.00;25.02;;;14.40;99.90;;;;;;5046744;28;20858;-77
2022/09/22 08:31:46;;;;;;;25.45;23.95;;;14.60;99.90;;;;;;5046378;28;20438;-76
2022/09/22 08:34:15;;;;;;;25.42;23.83;;;14.60;99.90;;;;;;5039938;28;20052;-76
2022/09/22 08:36:45;;;;;;;25.88;24.23;;;14.70;99.90;;;;;;5027833;28;20161;-77
2022/09/22 08:39:12;;;;;;;25.55;23.73;;;14.70;99.90;;;;;;5039566;28;20072;-77
2022/09/22 08:42:07;;;;;;;26.98;25.02;;;14.90;99.90;;;;;;5023845;28;20051;-77
2022/09/22 08:45:25;;;;;;;26.52;24.95;;;15.10;99.90;;;;;;5046924;28;20037;-77
2022/09/22 08:53:50;;;;;;;26.55;24.85;;;16.00;99.90;;;;;;5048273;28;20044;-78
2022/09/22 08:56:29;;;;;;;26.63;24.80;;;16.10;99.90;;;;;;5038278;28;20049;-80
2022/09/22 08:59:13;;;;;;;25.73;24.02;;;15.70;99.90;;;;;;5022384;28;20056;-78
2022/09/22 09:01:48;;;;;;;25.73;24.10;;;15.90;99.90;;;;;;5039536;28;20041;-77
2022/09/22 09:04:35;;;;;;;26.00;24.15;;;16.00;99.90;;;;;;5039911;28;20084;-79
2022/09/22 09:07:08;;;;;;;27.15;25.05;;;16.20;99.90;;;;;;5035527;28;20826;-76
2022/09/22 09:09:47;;;;;;;27.13;25.30;;;16.20;99.90;;;;;;5038211;28;20051;-77
2022/09/22 09:12:33;;;;;;;27.42;25.75;;;16.50;99.90;;;;;;5049552;28;20064;-78
2022/09/22 09:15:14;;;;;;;27.13;25.33;;;16.80;99.90;;;;;;5030060;28;20049;-77
2022/09/22 09:17:44;;;;;;;27.30;25.30;;;16.90;99.90;;;;;;5051130;28;20568;-77
2022/09/22 09:20:29;;;;;;;28.05;26.55;;;16.90;99.90;;;;;;5025785;28;20494;-76
2022/09/22 09:22:58;;;;;;;26.67;24.90;;;17.00;99.90;;;;;;5048153;28;20204;-77
2022/09/22 09:25:37;;;;;;;25.63;24.13;;;17.20;99.90;;;;;;5035345;28;20037;-79
2022/09/22 09:28:06;;;;;;;27.40;25.70;;;17.30;99.90;;;;;;5029661;28;20051;-79
2022/09/22 09:30:45;;;;;;;27.30;25.40;;;17.60;99.90;;;;;;5023631;28;20056;-77
2022/09/22 09:33:27;;;;;;;27.40;25.80;;;17.70;99.90;;;;;;5033924;28;20053;-78
2022/09/22 09:35:55;;;;;;;27.80;26.00;;;17.70;99.90;;;;;;5051168;28;20102;-79
2022/09/22 09:38:37;;;;;;;28.38;26.67;;;17.50;99.90;;;;;;5035331;28;20445;-77
2022/09/22 09:41:17;;;;;;;27.50;25.80;;;17.10;99.90;;;;;;5044825;28;20037;-78
2022/09/22 09:43:45;;;;;;;27.08;25.55;;;17.10;99.90;;;;;;5050010;28;20052;-77
2022/09/22 09:46:25;;;;;;;28.10;26.45;;;17.10;99.90;;;;;;5045715;28;20052;-77
2022/09/22 09:49:13;;;;;;;30.10;28.10;;;17.50;99.90;;;;;;5044670;28;20041;-77
2022/09/22 09:51:45;;;;;;;28.33;26.52;;;17.60;99.90;;;;;;5034565;28;20461;-77
2022/09/22 09:54:15;;;;;;;27.77;25.88;;;17.90;99.90;;;;;;5053258;28;20048;-77
2022/09/22 09:57:07;;;;;;;27.42;25.88;;;17.60;99.90;;;;;;5030716;28;20128;-76
2022/09/22 10:02:28;;;;;;;27.60;25.92;;;17.80;99.90;;;;;;5028373;28;20643;-77
2022/09/22 10:04:58;;;;;;;28.15;26.55;;;17.70;99.90;;;;;;5032978;28;20394;-77
2022/09/22 10:07:27;;;;;;;26.98;25.48;;;17.70;99.90;;;;;;5054852;28;20040;-77
2022/09/22 10:09:55;;;;;;;28.20;26.60;;;18.00;99.90;;;;;;5024798;28;20045;-77
2022/09/22 10:12:27;;;;;;;27.55;25.83;;;18.30;99.90;;;;;;5034230;28;21987;-76
2022/09/22 10:14:57;;;;;;;26.67;25.08;;;18.50;99.90;;;;;;5025310;28;20044;-77
2022/09/22 10:17:27;;;;;;;27.33;25.77;;;18.00;99.90;;;;;;5034954;28;20036;-76
2022/09/22 10:20:17;;;;;;;26.83;25.02;;;17.60;99.90;;;;;;5013199;28;20541;-76
2022/09/22 10:22:44;;;;;;;27.42;25.65;;;17.10;99.90;;;;;;5007253;28;20036;-76
2022/09/22 10:25:30;;;;;;;29.73;27.88;;;16.90;99.90;;;;;;5031901;28;20046;-77
2022/09/22 10:27:58;;;;;;;28.45;26.75;;;17.20;99.90;;;;;;5049090;28;20127;-77
2022/09/22 10:30:26;;;;;;;27.98;26.20;;;17.50;99.90;;;;;;5041344;28;20052;-77
2022/09/22 10:33:19;;;;;;;28.27;26.60;;;17.40;99.90;;;;;;5024455;28;20047;-77
2022/09/22 10:36:04;;;;;;;27.85;26.15;;;17.10;99.90;;;;;;5013719;28;20520;-77
2022/09/22 10:38:40;;;;;;;28.80;26.80;;;17.00;99.90;;;;;;5040881;28;20039;-77
2022/09/22 10:41:18;;;;;;;28.15;26.10;;;17.10;99.90;;;;;;5038548;28;20044;-77
2022/09/22 10:43:59;;;;;;;29.85;27.95;;;17.20;99.90;;;;;;5021806;28;20064;-77
2022/09/22 10:47:02;;;;;;;29.38;27.40;;;17.10;99.90;;;;;;5025855;28;20037;-77
2022/09/22 10:49:30;;;;;;;27.52;25.75;;;17.20;99.90;;;;;;5019415;28;20128;-77
2022/09/22 10:52:20;;;;;;;27.58;25.88;;;17.20;99.90;;;;;;5023562;28;20045;-77
2022/09/22 10:55:11;;;;;;;29.13;27.08;;;16.90;99.90;;;;;;5034635;28;20120;-77
2022/09/22 10:57:59;;;;;;;28.23;26.45;;;16.90;99.90;;;;;;5030407;28;20052;-77
2022/09/22 11:00:27;;;;;;;29.48;27.20;;;17.00;99.90;;;;;;5035460;28;20556;-77
2022/09/22 11:02:54;;;;;;;28.73;26.77;;;16.60;99.90;;;;;;5022179;28;20646;-77
2022/09/22 11:14:59;;;;;;;27.10;25.40;;;17.40;99.90;;;;;;5017489;28;20064;-78
2022/09/22 11:17:32;;;;;;;28.63;26.80;;;17.40;99.90;;;;;;5031716;28;20043;-77
2022/09/22 11:20:28;;;;;;;29.15;27.40;;;17.40;99.90;;;;;;5044098;28;20067;-76
2022/09/22 11:23:34;;;;;;;29.92;27.67;;;17.20;99.90;;;;;;5038751;28;20040;-77
2022/09/22 11:26:04;;;;;;;28.55;26.75;;;17.20;99.90;;;;;;5041203;28;20043;-77
2022/09/22 11:28:55;;;;;;;29.13;27.23;;;17.40;99.90;;;;;;5038040;28;20044;-77
2022/09/22 11:31:47;;;;;;;29.80;27.80;;;17.60;99.90;;;;;;5016178;28;20191;-77
2022/09/22 11:34:17;;;;;;;28.13;26.33;;;17.60;99.90;;;;;;5030872;28;20047;-77
2022/09/22 11:37:00;;;;;;;26.58;25.02;;;17.50;99.90;;;;;;5045560;28;20692;-78
2022/09/22 11:39:48;;;;;;;29.50;27.80;;;17.40;99.90;;;;;;5027764;28;20695;-77
2022/09/22 11:42:29;;;;;;;28.42;26.73;;;17.50;99.90;;;;;;5047393;28;20408;-78
2022/09/22 11:45:27;;;;;;;29.90;27.83;;;17.80;99.90;;;;;;5045536;28;20049;-78
2022/09/22 11:48:20;;;;;;;27.73;25.60;;;18.00;99.90;;;;;;5015275;28;20143;-78
2022/09/22 11:50:59;;;;;;;28.17;26.40;;;18.10;99.90;;;;;;5031256;28;20068;-78
2022/09/22 11:53:39;;;;;;;28.27;26.17;;;17.90;99.90;;;;;;5029574;28;20063;-78
2022/09/22 11:56:33;;;;;;;27.95;26.05;;;17.50;99.90;;;;;;5043231;28;20045;-77
2022/09/22 11:59:23;;;;;;;27.63;25.70;;;17.20;99.90;;;;;;5043864;28;20068;-77
2022/09/22 12:01:52;;;;;;;28.75;26.95;;;16.70;99.90;;;;;;5029643;28;20040;-78
2022/09/22 12:04:31;;;;;;;27.38;25.77;;;16.30;99.90;;;;;;5037930;28;20512;-78
2022/09/22 12:07:02;;;;;;;28.17;26.23;;;16.20;99.90;;;;;;5045026;28;20647;-77
2022/09/22 12:09:36;;;;;;;27.33;25.58;;;16.60;99.90;;;;;;5046301;28;20048;-76
2022/09/22 12:12:05;;;;;;;27.83;26.08;;;16.80;99.90;;;;;;5046394;28;20044;-78
2022/09/22 12:14:33;;;;;;;29.20;27.10;;;17.10;99.90;;;;;;5009552;28;20133;-78
2022/09/22 12:17:12;;;;;;;30.08;27.75;;;17.40;99.90;;;;;;5048450;28;20052;-78
2022/09/22 12:20:01;;;;;;;29.92;27.92;;;17.40;99.90;;;;;;5044256;28;20131;-79
2022/09/22 12:22:31;;;;;;;29.40;27.45;;;17.50;99.90;;;;;;5031121;28;20044;-78
2022/09/22 12:24:58;;;;;;;29.08;27.27;;;18.10;99.90;;;;;;5043595;28;20051;-78
2022/09/22 12:27:27;;;;;;;30.02;28.15;;;18.50;99.90;;;;;;5035603;28;20051;-79
2022/09/22 12:30:22;;;;;;;29.42;27.52;;;18.60;99.90;;;;;;5031599;28;20105;-78
2022/09/22 12:32:50;;;;;;;29.55;27.85;;;18.30;99.90;;;;;;5020118;28;20041;-77
2022/09/22 12:35:24;;;;;;;29.77;28.08;;;18.30;99.90;;;;;;5022343;28;20045;-78
2022/09/22 12:38:01;;;;;;;29.90;28.17;;;17.90;99.90;;;;;;5044456;28;20442;-78
2022/09/22 12:40:40;;;;;;;30.55;28.75;;;18.10;99.90;;;;;;5035274;28;20057;-78
2022/09/22 12:43:16;;;;;;;29.75;28.05;;;17.80;99.90;;;;;;5050729;28;20048;-79
2022/09/22 12:45:44;;;;;;;30.05;28.25;;;18.00;99.90;;;;;;5049286;28;20308;-77
2022/09/22 12:48:18;;;;;;;29.13;27.13;;;17.80;99.90;;;;;;5035797;28;20041;-80
2022/09/22 12:50:45;;;;;;;29.17;27.20;;;17.80;99.90;;;;;;5040987;28;20533;-79
2022/09/22 12:53:21;;;;;;;29.40;27.50;;;18.10;99.90;;;;;;5044618;28;20040;-79
2022/09/22 12:55:49;;;;;;;29.83;28.02;;;18.10;99.90;;;;;;5036043;28;20040;-79
2022/09/22 12:58:22;;;;;;;29.95;27.45;;;18.10;99.90;;;;;;5041550;28;20051;-79
2022/09/22 13:00:55;;;;;;;29.75;28.02;;;18.10;99.90;;;;;;5038895;28;20028;-78
2022/09/22 13:03:29;;;;;;;29.30;27.42;;;17.90;99.90;;;;;;5048083;28;20045;-78
2022/09/22 13:06:02;;;;;;;27.98;26.30;;;17.80;99.90;;;;;;5047456;28;20041;-78
2022/09/22 13:08:32;;;;;;;28.98;27.17;;;18.00;99.90;;;;;;5038412;28;20322;-78
2022/09/22 13:10:59;;;;;;;28.27;26.48;;;18.30;99.90;;;;;;5042239;28;20091;-79
2022/09/22 13:13:37;;;;;;;28.27;26.35;;;18.40;99.90;;;;;;5043786;28;20441;-79
2022/09/22 13:16:13;;;;;;;28.55;26.80;;;18.20;99.90;;;;;;5044968;28;20051;-78
2022/09/22 13:18:41;;;;;;;27.70;25.52;;;18.10;99.90;;;;;;5023197;28;20071;-78
2022/09/22 13:21:10;;;;;;;27.90;26.02;;;18.20;99.90;;;;;;5041755;28;20506;-79